createdAt,value
2023-04-22T00:01:59.764Z,7.67
2023-04-22T00:07:02.773Z,7.67
2023-04-22T00:12:06.217Z,7.58
2023-04-22T00:17:11.089Z,7.56
2023-04-22T00:22:14.041Z,7.47
2023-04-22T00:27:17.440Z,7.45
2023-04-22T00:32:22.608Z,7.40
2023-04-22T00:37:26.967Z,7.26
2023-04-22T00:42:30.721Z,7.27
2023-04-22T00:47:35.800Z,7.18
2023-04-22T00:52:39.049Z,7.09
2023-04-22T00:57:42.656Z,6.99
2023-04-22T01:02:47.641Z,6.94
2023-04-22T01:07:51.710Z,6.88
2023-04-22T01:12:54.728Z,6.74
2023-04-22T01:18:00.758Z,6.72
2023-04-22T01:23:20.375Z,6.67
2023-04-22T01:28:25.982Z,6.58
2023-04-22T01:33:30.923Z,6.55
2023-04-22T01:38:35.829Z,6.31
2023-04-22T01:43:40.990Z,6.50
2023-04-22T01:48:44.761Z,6.52
2023-04-22T01:53:49.741Z,6.63
2023-04-22T01:58:53.122Z,6.65
2023-04-22T02:03:56.167Z,6.65
2023-04-22T02:09:01.171Z,6.64
2023-04-22T02:14:04.332Z,6.66
2023-04-22T02:19:07.363Z,6.67
2023-04-22T02:24:11.821Z,6.74
2023-04-22T02:29:15.023Z,6.83
2023-04-22T02:34:18.221Z,6.83
2023-04-22T02:39:22.699Z,6.87
2023-04-22T02:44:25.800Z,6.94
2023-04-22T02:49:28.984Z,7.01
2023-04-22T02:54:33.377Z,7.00
2023-04-22T02:59:37.444Z,7.06
2023-04-22T03:04:41.591Z,7.09
2023-04-22T03:09:46.770Z,7.12
2023-04-22T03:14:49.762Z,7.10
2023-04-22T03:19:52.974Z,7.14
2023-04-22T03:24:58.945Z,7.18
2023-04-22T03:30:05.040Z,7.21
2023-04-22T03:35:08.838Z,7.23
2023-04-22T03:40:14.017Z,7.22
2023-04-22T03:45:18.093Z,7.24
2023-04-22T03:50:26.424Z,7.17
2023-04-22T03:55:35.381Z,7.21
2023-04-22T04:00:38.792Z,7.21
2023-04-22T04:05:46.534Z,7.17
2023-04-22T04:10:58.695Z,7.02
2023-04-22T04:16:02.532Z,7.06
2023-04-22T04:21:07.831Z,7.11
2023-04-22T04:26:21.469Z,7.09
2023-04-22T04:31:29.368Z,7.06
2023-04-22T04:36:34.762Z,7.06
2023-04-22T04:41:50.066Z,7.13
2023-04-22T04:46:55.086Z,7.21
2023-04-22T04:51:58.729Z,7.28
2023-04-22T04:57:06.075Z,7.31
2023-04-22T05:02:10.290Z,7.40
2023-04-22T05:07:13.933Z,7.49
2023-04-22T05:12:19.328Z,7.51
2023-04-22T05:17:22.853Z,7.60
2023-04-22T05:22:26.359Z,7.67
2023-04-22T05:27:31.816Z,7.76
2023-04-22T05:32:35.841Z,7.88
2023-04-22T05:37:39.591Z,7.99
2023-04-22T05:42:44.261Z,8.08
2023-04-22T05:47:47.839Z,8.29
2023-04-22T05:52:51.896Z,8.32
2023-04-22T05:57:56.478Z,8.64
2023-04-22T06:03:28.830Z,8.95
2023-04-22T06:08:33.058Z,9.20
2023-04-22T06:13:37.699Z,9.38
2023-04-22T06:18:40.790Z,9.66
2023-04-22T06:23:47.541Z,9.90
2023-04-22T06:28:52.567Z,10.18
2023-04-22T06:33:57.228Z,10.41
2023-04-22T06:39:01.147Z,10.66
2023-04-22T06:44:25.550Z,10.93
2023-04-22T06:50:12.248Z,11.23
2023-04-22T06:55:26.925Z,11.34
2023-04-22T07:00:52.343Z,11.32
2023-04-22T07:06:10.015Z,11.26
2023-04-22T07:11:28.828Z,11.70
2023-04-22T07:16:43.369Z,11.71
2023-04-22T07:21:46.469Z,11.54
2023-04-22T07:26:49.749Z,11.67
2023-04-22T07:31:54.256Z,12.09
2023-04-22T07:36:57.350Z,12.39
2023-04-22T07:42:00.507Z,12.43
2023-04-22T07:47:05.054Z,12.38
2023-04-22T07:52:08.062Z,12.28
2023-04-22T07:57:11.183Z,12.55
2023-04-22T08:02:15.877Z,12.78
2023-04-22T08:07:32.628Z,13.64
2023-04-22T08:12:36.153Z,14.38
2023-04-22T08:17:40.572Z,14.97
2023-04-22T08:22:44.441Z,15.28
2023-04-22T08:27:47.662Z,15.43
2023-04-22T08:32:53.489Z,15.59
2023-04-22T08:37:56.616Z,15.26
2023-04-22T08:42:59.782Z,15.26
2023-04-22T08:48:05.477Z,15.42
2023-04-22T08:53:08.586Z,15.76
2023-04-22T08:58:13.009Z,16.11
2023-04-22T09:03:18.116Z,16.47
2023-04-22T09:08:21.717Z,16.65
2023-04-22T09:13:25.827Z,17.07
2023-04-22T09:18:30.242Z,17.57
2023-04-22T09:23:33.350Z,17.69
2023-04-22T09:28:38.492Z,18.16
2023-04-22T09:33:42.933Z,18.34
2023-04-22T09:38:57.332Z,18.56
2023-04-22T09:44:01.753Z,18.85
2023-04-22T09:49:06.374Z,19.27
2023-04-22T09:54:11.708Z,19.90
2023-04-22T09:59:15.699Z,20.14
2023-04-22T10:04:21.719Z,20.23
2023-04-22T10:09:26.099Z,20.31
2023-04-22T10:14:29.394Z,20.86
2023-04-22T10:19:35.308Z,21.48
2023-04-22T10:24:38.459Z,21.86
2023-04-22T10:29:43.562Z,21.91
2023-04-22T10:34:49.756Z,21.18
2023-04-22T10:40:09.018Z,20.88
2023-04-22T10:45:15.493Z,20.91
2023-04-22T10:50:23.922Z,20.90
2023-04-22T10:55:27.972Z,20.88
2023-04-22T11:00:52.548Z,20.69
2023-04-22T11:06:18.307Z,20.05
2023-04-22T11:11:21.454Z,19.42
2023-04-22T11:16:25.269Z,18.65
2023-04-22T11:21:29.941Z,18.07
2023-04-22T11:26:37.622Z,17.48
2023-04-22T11:31:47.640Z,17.10
2023-04-22T11:36:52.689Z,16.67
2023-04-22T11:41:55.716Z,16.30
2023-04-22T11:47:00.681Z,16.19
2023-04-22T11:52:05.409Z,16.05
2023-04-22T11:57:11.901Z,16.05
2023-04-22T12:02:14.966Z,15.81
2023-04-22T12:07:19.662Z,15.32
2023-04-22T12:12:25.789Z,15.40
2023-04-22T12:17:28.834Z,15.11
2023-04-22T12:22:34.360Z,15.03
2023-04-22T12:27:37.488Z,14.77
2023-04-22T12:32:41.160Z,14.43
2023-04-22T12:37:45.660Z,14.08
2023-04-22T12:42:48.699Z,14.08
2023-04-22T12:47:53.675Z,13.93
2023-04-22T12:52:58.242Z,14.12
2023-04-22T12:58:01.441Z,14.12
2023-04-22T13:03:04.726Z,14.26
2023-04-22T13:08:09.130Z,14.24
2023-04-22T13:18:18.326Z,14.33
2023-04-22T13:23:23.665Z,14.34
2023-04-22T13:28:26.829Z,14.05
2023-04-22T13:33:29.786Z,14.15
2023-04-22T13:38:34.438Z,14.56
2023-04-22T13:43:38.012Z,14.81
2023-04-22T13:48:41.083Z,15.21
2023-04-22T13:53:45.642Z,15.34
2023-04-22T13:58:48.949Z,15.23
2023-04-22T14:03:53.811Z,15.30
2023-04-22T14:08:58.368Z,15.31
2023-04-22T14:14:01.394Z,15.03
2023-04-22T14:19:06.178Z,14.59
2023-04-22T14:24:10.894Z,14.65
2023-04-22T14:29:13.980Z,14.35
2023-04-22T14:34:17.057Z,14.22
2023-04-22T14:39:21.646Z,13.99
2023-04-22T14:44:24.852Z,13.80
2023-04-22T14:49:28.054Z,13.75
2023-04-22T14:54:33.163Z,13.45
2023-04-22T14:59:36.368Z,13.11
2023-04-22T15:04:39.506Z,12.83
2023-04-22T15:09:44.229Z,12.91
2023-04-22T15:14:47.620Z,12.76
2023-04-22T15:19:55.065Z,12.73
2023-04-22T15:24:59.519Z,12.58
2023-04-22T15:30:03.425Z,12.70
2023-04-22T15:35:07.714Z,12.62
2023-04-22T15:40:12.237Z,12.62
2023-04-22T15:45:15.723Z,12.36
2023-04-22T15:50:19.353Z,11.83
2023-04-22T15:55:24.576Z,11.56
2023-04-22T16:00:27.888Z,11.39
2023-04-22T16:05:31.249Z,11.30
2023-04-22T16:10:35.970Z,11.20
2023-04-22T16:15:39.149Z,11.20
2023-04-22T16:20:42.618Z,11.19
2023-04-22T16:25:47.338Z,11.27
2023-04-22T16:30:50.946Z,11.25
2023-04-22T16:35:54.061Z,11.19
2023-04-22T16:40:58.431Z,11.43
2023-04-22T16:46:02.047Z,11.39
2023-04-22T16:51:05.776Z,11.31
2023-04-22T16:56:09.993Z,11.67
2023-04-22T17:01:13.143Z,11.62
2023-04-22T17:06:16.654Z,11.60
2023-04-22T17:11:21.040Z,11.53
2023-04-22T17:16:24.621Z,11.50
2023-04-22T17:21:28.100Z,11.46
2023-04-22T17:26:33.496Z,11.25
2023-04-22T17:31:36.664Z,11.26
2023-04-22T17:36:39.753Z,11.27
2023-04-22T17:41:45.090Z,11.42
2023-04-22T17:46:48.670Z,11.23
2023-04-22T17:51:52.005Z,11.23
2023-04-22T17:56:56.532Z,11.19
2023-04-22T18:02:01.435Z,11.10
2023-04-22T18:07:04.949Z,11.23
2023-04-22T18:12:09.536Z,11.30
2023-04-22T18:17:13.596Z,11.30
2023-04-22T18:22:17.105Z,11.30
2023-04-22T18:27:21.523Z,11.22
2023-04-22T18:32:24.913Z,11.16
2023-04-22T18:37:30.829Z,11.00
2023-04-22T18:42:35.395Z,10.90
2023-04-22T18:47:38.548Z,10.92
2023-04-22T18:52:42.751Z,10.87
2023-04-22T18:57:47.446Z,10.97
2023-04-22T19:02:51.553Z,11.05
2023-04-22T19:07:54.837Z,10.93
2023-04-22T19:12:59.888Z,10.65
2023-04-22T19:18:03.963Z,10.44
2023-04-22T19:23:07.337Z,10.30
2023-04-22T19:28:12.174Z,9.65
2023-04-22T19:33:16.122Z,9.85
2023-04-22T19:38:22.252Z,9.89
2023-04-22T19:43:26.995Z,9.80
2023-04-22T19:48:30.662Z,9.66
2023-04-22T19:53:35.039Z,9.59
2023-04-22T19:58:40.054Z,9.52
2023-04-22T20:03:43.821Z,9.41
2023-04-22T20:08:48.546Z,9.31
2023-04-22T20:13:59.350Z,9.25
2023-04-22T20:19:02.736Z,9.20
2023-04-22T20:24:06.576Z,9.06
2023-04-22T20:29:12.216Z,9.06
2023-04-22T20:34:15.662Z,9.07
2023-04-22T20:39:19.130Z,9.02
2023-04-22T20:44:23.487Z,8.98
2023-04-22T20:49:26.687Z,8.99
2023-04-22T20:54:30.361Z,8.96
2023-04-22T20:59:35.535Z,8.93
2023-04-22T21:04:39.415Z,8.92
2023-04-22T21:09:43.655Z,8.86
2023-04-22T21:14:49.153Z,8.81
2023-04-22T21:19:56.952Z,8.81
2023-04-22T21:25:08.306Z,8.77
2023-04-22T21:30:14.145Z,8.73
2023-04-22T21:35:17.851Z,8.69
2023-04-22T21:40:20.876Z,8.65
2023-04-22T21:45:25.228Z,8.63
2023-04-22T21:50:30.283Z,8.61
2023-04-22T21:55:33.710Z,8.63
2023-04-22T22:00:38.731Z,8.50
2023-04-22T22:05:41.762Z,8.66
2023-04-22T22:10:44.917Z,8.63
2023-04-22T22:15:49.556Z,8.52
2023-04-22T22:20:53.836Z,8.61
2023-04-22T22:25:56.813Z,8.59
2023-04-22T22:31:02.548Z,8.57
2023-04-22T22:36:05.625Z,8.52
2023-04-22T22:41:08.714Z,8.52
2023-04-22T22:46:13.221Z,8.52
2023-04-22T22:51:18.479Z,8.50
2023-04-22T22:56:21.930Z,8.50
2023-04-22T23:01:26.324Z,8.49
2023-04-22T23:06:29.595Z,8.45
2023-04-22T23:11:32.794Z,8.51
2023-04-22T23:16:38.251Z,8.52
2023-04-22T23:21:42.168Z,8.43
2023-04-22T23:26:45.911Z,8.35
2023-04-22T23:31:52.143Z,8.48
2023-04-22T23:36:57.507Z,8.47
2023-04-22T23:42:01.137Z,8.46
2023-04-22T23:47:07.540Z,8.43
2023-04-22T23:52:11.041Z,8.35
2023-04-22T23:57:14.481Z,8.33
